createdAt,value
2022-08-24T00:00:39.503Z,25.05
2022-08-24T00:03:11.984Z,25.06
2022-08-24T00:05:40.502Z,25.07
2022-08-24T00:08:09.902Z,25.07
2022-08-24T00:10:37.909Z,25.06
2022-08-24T00:13:05.905Z,25.05
2022-08-24T00:15:33.908Z,25.05
2022-08-24T00:18:02.156Z,25.08
2022-08-24T00:20:30.270Z,25.10
2022-08-24T00:22:58.280Z,25.12
2022-08-24T00:25:28.606Z,25.06
2022-08-24T00:27:56.750Z,25.12
2022-08-24T00:30:25.095Z,25.12
2022-08-24T00:32:54.238Z,25.10
2022-08-24T00:35:22.630Z,25.07
2022-08-24T00:37:51.106Z,25.10
2022-08-24T00:40:21.778Z,25.09
2022-08-24T00:42:51.453Z,25.08
2022-08-24T00:45:20.971Z,25.09
2022-08-24T00:47:51.301Z,25.01
2022-08-24T00:50:22.039Z,24.96
2022-08-24T00:52:51.739Z,25.09
2022-08-24T00:55:21.592Z,25.09
2022-08-24T00:57:53.425Z,25.02
2022-08-24T01:00:23.988Z,25.02
2022-08-24T01:02:53.328Z,24.96
2022-08-24T01:05:21.495Z,25.02
2022-08-24T01:07:50.742Z,25.02
2022-08-24T01:10:21.114Z,24.96
2022-08-24T01:13:00.719Z,24.95
2022-08-24T01:15:29.675Z,25.01
2022-08-24T01:18:15.063Z,24.99
2022-08-24T01:20:44.354Z,25.01
2022-08-24T01:23:13.633Z,25.01
2022-08-24T01:25:43.350Z,24.99
2022-08-24T01:28:13.079Z,24.99
2022-08-24T01:30:43.046Z,24.99
2022-08-24T01:33:11.260Z,24.90
2022-08-24T01:35:39.882Z,24.92
2022-08-24T01:38:10.114Z,24.95
2022-08-24T01:40:39.717Z,24.92
2022-08-24T01:43:09.063Z,24.91
2022-08-24T01:45:38.108Z,24.93
2022-08-24T01:48:06.568Z,24.95
2022-08-24T01:50:35.046Z,24.94
2022-08-24T01:53:05.801Z,24.88
2022-08-24T01:55:34.513Z,24.97
2022-08-24T01:58:02.766Z,25.02
2022-08-24T02:00:32.246Z,25.01
2022-08-24T02:03:00.323Z,25.02
2022-08-24T02:05:28.408Z,25.04
2022-08-24T02:07:58.352Z,25.04
2022-08-24T02:10:26.842Z,25.05
2022-08-24T02:12:58.783Z,25.03
2022-08-24T02:15:32.486Z,25.05
2022-08-24T02:18:01.048Z,25.06
2022-08-24T02:20:29.342Z,25.06
2022-08-24T02:22:57.371Z,25.05
2022-08-24T02:25:26.365Z,25.05
2022-08-24T02:27:54.354Z,25.07
2022-08-24T02:30:22.369Z,24.97
2022-08-24T02:32:51.702Z,25.03
2022-08-24T02:35:19.696Z,25.04
2022-08-24T02:37:47.773Z,25.03
2022-08-24T02:40:15.857Z,25.03
2022-08-24T02:42:43.936Z,25.05
2022-08-24T02:45:12.539Z,25.03
2022-08-24T02:47:40.564Z,25.06
2022-08-24T02:50:12.321Z,25.03
2022-08-24T02:52:40.548Z,25.00
2022-08-24T02:55:09.146Z,24.97
2022-08-24T02:57:38.704Z,24.95
2022-08-24T03:00:10.410Z,24.93
2022-08-24T03:02:38.822Z,24.88
2022-08-24T03:05:07.720Z,24.92
2022-08-24T03:07:37.100Z,24.87
2022-08-24T03:10:05.865Z,24.89
2022-08-24T03:12:34.736Z,24.89
2022-08-24T03:15:03.306Z,24.86
2022-08-24T03:17:31.508Z,24.85
2022-08-24T03:20:00.310Z,24.84
2022-08-24T03:22:29.572Z,24.84
2022-08-24T03:24:59.018Z,24.85
2022-08-24T03:27:27.101Z,24.85
2022-08-24T03:29:55.242Z,24.84
2022-08-24T03:32:23.233Z,24.83
2022-08-24T03:34:51.305Z,24.82
2022-08-24T03:37:20.213Z,24.82
2022-08-24T03:39:49.904Z,24.83
2022-08-24T03:42:19.498Z,24.77
2022-08-24T03:44:47.593Z,24.85
2022-08-24T03:47:15.567Z,24.81
2022-08-24T03:49:43.553Z,24.81
2022-08-24T03:52:11.701Z,24.82
2022-08-24T03:54:39.694Z,24.72
2022-08-24T03:57:07.736Z,24.81
2022-08-24T03:59:39.332Z,24.80
2022-08-24T04:02:14.719Z,24.78
2022-08-24T04:04:43.165Z,24.81
2022-08-24T04:07:12.377Z,24.82
2022-08-24T04:09:40.423Z,24.80
2022-08-24T04:12:08.723Z,24.78
2022-08-24T04:14:38.704Z,24.79
2022-08-24T04:17:06.741Z,24.78
2022-08-24T04:19:34.925Z,24.74
2022-08-24T04:22:02.964Z,24.66
2022-08-24T04:24:32.045Z,24.36
2022-08-24T04:27:00.039Z,24.04
2022-08-24T04:29:28.024Z,23.75
2022-08-24T04:31:58.964Z,23.57
2022-08-24T04:34:26.988Z,23.48
2022-08-24T04:36:54.948Z,23.35
2022-08-24T04:39:23.571Z,23.24
2022-08-24T04:41:51.640Z,23.19
2022-08-24T04:44:20.260Z,23.13
2022-08-24T04:46:48.317Z,23.08
2022-08-24T04:49:17.846Z,22.99
2022-08-24T04:51:45.852Z,22.93
2022-08-24T04:54:13.887Z,22.89
2022-08-24T04:56:41.873Z,22.88
2022-08-24T04:59:09.879Z,22.89
2022-08-24T05:01:37.898Z,22.92
2022-08-24T05:04:06.043Z,22.98
2022-08-24T05:06:35.425Z,22.96
2022-08-24T05:09:04.554Z,22.97
2022-08-24T05:11:32.547Z,23.00
2022-08-24T05:14:00.648Z,23.04
2022-08-24T05:16:28.757Z,23.01
2022-08-24T05:19:00.402Z,23.03
2022-08-24T05:21:28.453Z,23.05
2022-08-24T05:23:57.944Z,23.00
2022-08-24T05:26:26.612Z,22.99
2022-08-24T05:28:55.231Z,23.02
2022-08-24T05:31:24.201Z,23.03
2022-08-24T05:33:52.319Z,22.99
2022-08-24T05:36:21.087Z,22.99
2022-08-24T05:38:49.277Z,22.97
2022-08-24T05:41:18.710Z,22.95
2022-08-24T05:43:46.880Z,22.94
2022-08-24T05:46:15.000Z,22.99
2022-08-24T05:48:43.267Z,23.03
2022-08-24T05:51:21.012Z,23.05
2022-08-24T05:53:49.389Z,23.03
2022-08-24T05:56:19.132Z,23.07
2022-08-24T05:58:47.478Z,23.06
2022-08-24T06:01:16.540Z,23.06
2022-08-24T06:03:44.513Z,23.06
2022-08-24T06:06:13.540Z,23.06
2022-08-24T06:08:42.628Z,23.08
2022-08-24T06:11:10.827Z,23.11
2022-08-24T06:13:40.280Z,23.08
2022-08-24T06:16:21.249Z,23.08
2022-08-24T06:18:50.855Z,23.03
2022-08-24T06:21:19.789Z,23.04
2022-08-24T06:23:48.935Z,23.05
2022-08-24T06:26:34.453Z,23.06
2022-08-24T06:29:03.857Z,23.06
2022-08-24T06:31:36.201Z,23.05
2022-08-24T06:34:08.211Z,23.07
2022-08-24T06:36:36.192Z,23.08
2022-08-24T06:39:04.264Z,23.09
2022-08-24T06:41:34.088Z,23.12
2022-08-24T06:44:03.884Z,23.14
2022-08-24T06:46:33.057Z,23.20
2022-08-24T06:49:01.573Z,23.25
2022-08-24T06:51:29.655Z,23.32
2022-08-24T06:53:57.645Z,23.40
2022-08-24T06:56:25.685Z,23.45
2022-08-24T06:58:53.823Z,23.51
2022-08-24T07:01:25.242Z,23.54
2022-08-24T07:03:53.694Z,23.57
2022-08-24T07:06:22.509Z,23.67
2022-08-24T07:08:50.551Z,23.74
2022-08-24T07:11:19.647Z,23.81
2022-08-24T07:13:47.935Z,23.88
2022-08-24T07:16:16.033Z,23.91
2022-08-24T07:18:49.309Z,23.91
2022-08-24T07:21:19.564Z,23.89
2022-08-24T07:23:48.203Z,23.87
2022-08-24T07:26:21.478Z,23.88
2022-08-24T07:28:50.536Z,23.92
2022-08-24T07:31:18.590Z,24.01
2022-08-24T07:33:48.107Z,24.10
2022-08-24T07:36:22.542Z,24.19
2022-08-24T07:38:52.293Z,24.30
2022-08-24T07:41:43.093Z,24.40
2022-08-24T07:44:09.195Z,24.50
2022-08-24T07:46:37.871Z,24.54
2022-08-24T07:49:21.464Z,24.55
2022-08-24T07:51:59.135Z,24.56
2022-08-24T07:54:28.773Z,24.58
2022-08-24T07:56:56.806Z,24.61
2022-08-24T07:59:24.844Z,24.64
2022-08-24T08:01:53.026Z,24.61
2022-08-24T08:04:25.200Z,24.73
2022-08-24T08:06:53.362Z,24.71
2022-08-24T08:09:21.527Z,24.82
2022-08-24T08:11:49.543Z,24.89
2022-08-24T08:14:17.612Z,24.99
2022-08-24T08:16:45.652Z,25.04
2022-08-24T08:19:13.738Z,25.13
2022-08-24T08:22:04.021Z,25.13
2022-08-24T08:24:32.097Z,25.11
2022-08-24T08:27:00.366Z,25.11
2022-08-24T08:29:28.663Z,25.09
2022-08-24T08:31:56.652Z,25.08
2022-08-24T08:34:24.712Z,25.09
2022-08-24T08:36:54.405Z,25.12
2022-08-24T08:39:23.509Z,25.14
2022-08-24T08:42:16.944Z,25.14
2022-08-24T08:45:08.582Z,25.16
2022-08-24T08:48:08.165Z,25.23
2022-08-24T08:50:41.380Z,25.31
2022-08-24T08:53:27.318Z,25.38
2022-08-24T08:56:01.247Z,25.47
2022-08-24T08:58:46.722Z,25.48
2022-08-24T09:01:53.449Z,25.54
2022-08-24T09:04:41.461Z,25.52
2022-08-24T09:07:40.941Z,25.46
2022-08-24T09:10:30.541Z,25.58
2022-08-24T09:13:18.307Z,25.64
2022-08-24T09:16:10.788Z,25.78
2022-08-24T09:18:49.074Z,25.83
2022-08-24T09:21:34.844Z,25.91
2022-08-24T09:24:10.940Z,25.97
2022-08-24T09:26:46.135Z,26.07
2022-08-24T09:29:17.320Z,26.19
2022-08-24T09:31:54.144Z,26.31
2022-08-24T09:34:39.361Z,26.46
2022-08-24T09:37:30.901Z,26.63
2022-08-24T09:40:06.077Z,26.76
2022-08-24T09:43:10.150Z,26.94
2022-08-24T09:46:07.880Z,27.16
2022-08-24T09:49:11.207Z,27.39
2022-08-24T09:52:07.440Z,27.62
2022-08-24T09:55:00.061Z,27.73
2022-08-24T09:57:59.292Z,27.86
2022-08-24T10:00:38.296Z,27.92
2022-08-24T10:03:36.086Z,28.01
2022-08-24T10:06:24.173Z,28.15
2022-08-24T10:09:02.352Z,28.43
2022-08-24T10:11:37.680Z,28.64
2022-08-24T10:14:14.488Z,28.73
2022-08-24T10:16:47.069Z,28.73
2022-08-24T10:19:32.663Z,28.61
2022-08-24T10:22:11.403Z,28.62
2022-08-24T10:24:56.952Z,28.61
2022-08-24T10:27:53.415Z,28.61
2022-08-24T10:30:49.176Z,28.50
2022-08-24T10:33:22.569Z,28.43
2022-08-24T10:36:34.367Z,28.39
2022-08-24T10:39:28.967Z,28.34
2022-08-24T10:42:34.944Z,28.37
2022-08-24T10:45:07.638Z,28.29
2022-08-24T10:47:39.158Z,28.27
2022-08-24T10:50:38.815Z,28.19
2022-08-24T10:53:26.544Z,28.15
2022-08-24T10:56:12.930Z,28.11
2022-08-24T10:58:59.546Z,28.30
2022-08-24T11:01:36.670Z,28.44
2022-08-24T11:04:08.694Z,28.56
2022-08-24T11:06:39.580Z,28.66
2022-08-24T11:09:13.059Z,28.84
2022-08-24T11:11:45.213Z,28.98
2022-08-24T11:14:24.815Z,29.12
2022-08-24T11:16:57.546Z,29.21
2022-08-24T11:19:33.729Z,29.27
2022-08-24T11:22:04.232Z,29.30
2022-08-24T11:24:40.668Z,29.43
2022-08-24T11:27:10.677Z,29.58
2022-08-24T11:30:02.869Z,29.82
2022-08-24T11:32:33.393Z,30.21
2022-08-24T11:35:03.176Z,30.87
2022-08-24T11:37:36.316Z,31.36
2022-08-24T11:40:05.963Z,31.69
2022-08-24T11:42:43.702Z,31.91
2022-08-24T11:45:15.561Z,32.10
2022-08-24T11:47:49.764Z,32.38
2022-08-24T11:50:34.493Z,32.85
2022-08-24T11:53:12.101Z,33.37
2022-08-24T11:55:47.137Z,33.69
2022-08-24T11:58:24.137Z,33.45
2022-08-24T12:00:56.236Z,33.26
2022-08-24T12:03:37.011Z,33.14
2022-08-24T12:06:08.699Z,32.95
2022-08-24T12:08:41.978Z,32.80
2022-08-24T12:11:12.885Z,32.41
2022-08-24T12:13:49.463Z,31.93
2022-08-24T12:16:20.694Z,31.41
2022-08-24T12:18:52.750Z,31.00
2022-08-24T12:21:22.929Z,30.64
2022-08-24T12:23:53.659Z,30.33
2022-08-24T12:26:26.561Z,30.00
2022-08-24T12:28:56.497Z,29.50
2022-08-24T12:31:41.470Z,29.21
2022-08-24T12:34:12.193Z,28.96
2022-08-24T12:36:43.322Z,28.74
2022-08-24T12:39:15.300Z,28.60
2022-08-24T12:41:49.865Z,28.54
2022-08-24T12:44:17.931Z,28.47
2022-08-24T12:46:45.943Z,28.50
2022-08-24T12:49:18.091Z,28.54
2022-08-24T12:52:01.162Z,28.62
2022-08-24T12:54:42.954Z,28.69
2022-08-24T12:57:29.853Z,28.64
2022-08-24T12:59:58.507Z,28.59
2022-08-24T13:02:33.967Z,28.58
2022-08-24T13:05:10.275Z,28.61
2022-08-24T13:07:43.757Z,28.61
2022-08-24T13:10:16.201Z,28.59
2022-08-24T13:12:56.933Z,28.58
2022-08-24T13:16:01.510Z,28.60
2022-08-24T13:19:10.544Z,28.59
2022-08-24T13:21:44.852Z,28.61
2022-08-24T13:24:53.499Z,28.74
2022-08-24T13:28:12.186Z,28.89
2022-08-24T13:30:59.111Z,28.87
2022-08-24T13:33:30.543Z,28.60
2022-08-24T13:36:07.287Z,28.75
2022-08-24T13:39:02.052Z,29.13
2022-08-24T13:41:41.261Z,29.97
2022-08-24T13:44:12.356Z,30.76
2022-08-24T13:46:49.064Z,31.61
2022-08-24T13:49:22.752Z,32.47
2022-08-24T13:51:53.357Z,33.31
2022-08-24T13:54:26.195Z,33.65
2022-08-24T13:57:03.601Z,33.73
2022-08-24T13:59:49.007Z,33.50
2022-08-24T14:02:28.420Z,33.27
2022-08-24T14:04:56.817Z,32.87
2022-08-24T14:07:26.409Z,32.33
2022-08-24T14:10:03.220Z,31.89
2022-08-24T14:12:44.313Z,31.61
2022-08-24T14:15:18.304Z,31.37
2022-08-24T14:17:53.765Z,31.19
2022-08-24T14:20:49.886Z,31.07
2022-08-24T14:23:42.087Z,30.91
2022-08-24T14:26:52.314Z,31.00
2022-08-24T14:29:30.992Z,30.97
2022-08-24T14:32:36.200Z,30.79
2022-08-24T14:35:19.417Z,30.39
2022-08-24T14:37:57.112Z,30.22
2022-08-24T14:40:28.703Z,30.02
2022-08-24T14:43:10.569Z,29.85
2022-08-24T14:45:49.874Z,29.73
2022-08-24T14:48:22.237Z,29.67
2022-08-24T14:51:02.405Z,29.55
2022-08-24T14:53:59.577Z,29.33
2022-08-24T14:56:39.769Z,28.92
2022-08-24T14:59:09.471Z,28.83
2022-08-24T15:02:16.516Z,28.78
2022-08-24T15:04:46.642Z,28.71
2022-08-24T15:07:24.765Z,28.82
2022-08-24T15:09:53.999Z,28.91
2022-08-24T15:12:33.656Z,28.99
2022-08-24T15:15:05.658Z,29.14
2022-08-24T15:17:41.142Z,29.36
2022-08-24T15:20:16.105Z,29.59
2022-08-24T15:22:47.791Z,29.60
2022-08-24T15:25:22.221Z,29.50
2022-08-24T15:27:55.038Z,29.24
2022-08-24T15:30:29.030Z,29.02
2022-08-24T15:33:05.582Z,28.58
2022-08-24T15:35:35.425Z,28.54
2022-08-24T15:38:21.024Z,28.37
2022-08-24T15:41:04.843Z,28.29
2022-08-24T15:43:33.012Z,28.20
2022-08-24T15:46:01.792Z,28.22
2022-08-24T15:48:30.134Z,28.22
2022-08-24T15:50:58.549Z,28.22
2022-08-24T15:53:30.702Z,28.23
2022-08-24T15:56:35.818Z,28.22
2022-08-24T15:59:17.346Z,28.24
2022-08-24T16:02:15.657Z,28.28
2022-08-24T16:04:48.615Z,28.29
2022-08-24T16:07:22.993Z,28.17
2022-08-24T16:10:01.988Z,28.11
2022-08-24T16:12:32.660Z,28.22
2022-08-24T16:15:18.154Z,28.39
2022-08-24T16:17:51.064Z,28.42
2022-08-24T16:20:33.315Z,28.31
2022-08-24T16:23:02.573Z,28.38
2022-08-24T16:25:32.880Z,28.30
2022-08-24T16:28:05.488Z,28.39
2022-08-24T16:30:44.864Z,28.35
2022-08-24T16:33:43.052Z,28.19
2022-08-24T16:36:13.028Z,28.03
2022-08-24T16:38:46.567Z,27.96
2022-08-24T16:41:17.657Z,27.92
2022-08-24T16:43:46.033Z,27.85
2022-08-24T16:46:14.465Z,27.80
2022-08-24T16:48:43.193Z,27.71
2022-08-24T16:51:11.402Z,27.56
2022-08-24T16:53:39.432Z,27.46
2022-08-24T16:56:08.906Z,27.41
2022-08-24T16:58:38.464Z,27.41
2022-08-24T17:01:06.869Z,27.39
2022-08-24T17:03:35.378Z,27.34
2022-08-24T17:06:03.718Z,27.25
2022-08-24T17:08:32.124Z,27.13
2022-08-24T17:11:00.590Z,26.97
2022-08-24T17:13:48.293Z,26.96
2022-08-24T17:16:18.272Z,26.84
2022-08-24T17:18:46.525Z,26.66
2022-08-24T17:21:14.700Z,26.49
2022-08-24T17:23:43.094Z,26.29
2022-08-24T17:26:20.120Z,26.12
2022-08-24T17:28:49.610Z,26.01
2022-08-24T17:31:19.420Z,25.84
2022-08-24T17:33:47.592Z,25.79
2022-08-24T17:36:16.136Z,25.73
2022-08-24T17:38:45.922Z,25.67
2022-08-24T17:41:14.743Z,25.55
2022-08-24T17:43:47.215Z,25.59
2022-08-24T17:46:15.875Z,25.50
2022-08-24T17:48:45.978Z,25.68
2022-08-24T17:51:20.125Z,25.64
2022-08-24T17:53:52.136Z,25.28
2022-08-24T17:56:20.679Z,25.90
2022-08-24T17:59:14.794Z,25.77
2022-08-24T18:01:42.976Z,26.02
2022-08-24T18:04:12.618Z,26.07
2022-08-24T18:06:42.969Z,26.14
2022-08-24T18:09:17.924Z,26.15
2022-08-24T18:11:46.167Z,26.11
2022-08-24T18:14:14.502Z,26.06
2022-08-24T18:16:42.696Z,25.99
2022-08-24T18:19:25.358Z,25.86
2022-08-24T18:21:53.508Z,25.67
2022-08-24T18:24:22.111Z,25.73
2022-08-24T18:26:50.437Z,25.68
2022-08-24T18:29:24.739Z,25.47
2022-08-24T18:31:53.129Z,25.46
2022-08-24T18:34:32.741Z,25.49
2022-08-24T18:37:03.129Z,25.44
2022-08-24T18:39:52.090Z,25.34
2022-08-24T18:42:23.599Z,25.03
2022-08-24T18:44:51.765Z,25.11
2022-08-24T18:47:19.807Z,25.04
2022-08-24T18:49:49.521Z,25.01
2022-08-24T18:52:19.101Z,24.93
2022-08-24T18:54:48.313Z,24.78
2022-08-24T18:57:16.815Z,24.65
2022-08-24T18:59:47.743Z,24.54
2022-08-24T19:02:33.547Z,24.44
2022-08-24T19:05:06.685Z,24.28
2022-08-24T19:07:36.176Z,24.23
2022-08-24T19:10:05.086Z,24.16
2022-08-24T19:12:33.548Z,24.13
2022-08-24T19:15:03.124Z,24.09
2022-08-24T19:17:31.250Z,24.10
2022-08-24T19:19:59.254Z,24.10
2022-08-24T19:22:28.681Z,24.07
2022-08-24T19:24:56.931Z,24.09
2022-08-24T19:27:26.142Z,24.10
2022-08-24T19:29:55.890Z,24.13
2022-08-24T19:32:26.177Z,24.12
2022-08-24T19:34:54.361Z,24.06
2022-08-24T19:37:22.452Z,23.97
2022-08-24T19:39:52.036Z,24.01
2022-08-24T19:42:21.433Z,23.97
2022-08-24T19:45:06.944Z,23.93
2022-08-24T19:47:35.160Z,23.88
2022-08-24T19:50:03.697Z,23.87
2022-08-24T19:52:32.904Z,23.81
2022-08-24T19:55:02.538Z,23.71
2022-08-24T19:57:36.219Z,23.67
2022-08-24T20:00:22.017Z,23.24
2022-08-24T20:02:51.568Z,23.53
2022-08-24T20:05:20.149Z,23.44
2022-08-24T20:07:48.207Z,23.43
2022-08-24T20:10:19.150Z,23.44
2022-08-24T20:12:47.140Z,23.49
2022-08-24T20:15:15.195Z,23.53
2022-08-24T20:17:43.388Z,23.57
2022-08-24T20:20:13.322Z,23.56
2022-08-24T20:22:41.392Z,23.66
2022-08-24T20:25:10.087Z,23.65
2022-08-24T20:27:39.741Z,23.64
2022-08-24T20:30:09.161Z,23.63
2022-08-24T20:32:37.209Z,23.61
2022-08-24T20:35:05.669Z,23.61
2022-08-24T20:37:33.999Z,23.61
2022-08-24T20:40:02.285Z,23.61
2022-08-24T20:42:31.768Z,23.63
2022-08-24T20:48:31.393Z,23.60
2022-08-24T20:50:59.809Z,23.56
2022-08-24T20:53:27.849Z,23.54
2022-08-24T20:56:06.801Z,23.53
2022-08-24T20:58:34.887Z,23.45
2022-08-24T21:01:02.958Z,23.40
2022-08-24T21:03:32.481Z,23.39
2022-08-24T21:06:00.689Z,23.38
2022-08-24T21:08:28.664Z,23.35
2022-08-24T21:10:56.725Z,23.31
2022-08-24T21:13:24.766Z,23.27
2022-08-24T21:15:52.972Z,23.27
2022-08-24T21:18:21.360Z,23.25
2022-08-24T21:21:03.375Z,23.20
2022-08-24T21:23:33.110Z,23.18
2022-08-24T21:26:01.906Z,23.14
2022-08-24T21:28:30.060Z,23.12
2022-08-24T21:31:01.411Z,23.08
2022-08-24T21:33:49.474Z,23.07
2022-08-24T21:36:18.855Z,23.06
2022-08-24T21:38:46.898Z,23.07
2022-08-24T21:41:15.745Z,23.07
2022-08-24T21:43:43.745Z,23.08
2022-08-24T21:46:12.073Z,23.07
2022-08-24T21:48:40.158Z,23.15
2022-08-24T21:51:08.307Z,23.18
2022-08-24T21:53:38.077Z,23.17
2022-08-24T21:56:06.338Z,23.16
2022-08-24T21:58:34.459Z,23.15
2022-08-24T22:01:03.809Z,23.19
2022-08-24T22:03:39.879Z,23.25
2022-08-24T22:06:08.655Z,23.29
2022-08-24T22:08:38.160Z,23.25
2022-08-24T22:11:06.279Z,23.21
2022-08-24T22:13:34.245Z,23.20
2022-08-24T22:16:02.641Z,23.14
2022-08-24T22:18:30.896Z,23.08
2022-08-24T22:20:58.903Z,23.04
2022-08-24T22:23:26.853Z,23.02
2022-08-24T22:25:56.260Z,23.00
2022-08-24T22:28:24.763Z,22.99
2022-08-24T22:30:52.925Z,23.04
2022-08-24T22:33:21.010Z,23.10
2022-08-24T22:35:50.409Z,23.16
2022-08-24T22:38:18.516Z,23.21
2022-08-24T22:40:46.526Z,23.25
2022-08-24T22:43:15.933Z,23.25
2022-08-24T22:45:43.983Z,23.23
2022-08-24T22:48:11.980Z,23.20
2022-08-24T22:50:43.671Z,23.20
2022-08-24T22:53:11.624Z,23.12
2022-08-24T22:55:39.600Z,23.06
2022-08-24T22:58:07.609Z,23.04
2022-08-24T23:00:39.330Z,23.04
2022-08-24T23:03:07.508Z,23.06
2022-08-24T23:05:35.491Z,23.09
2022-08-24T23:08:03.635Z,23.07
2022-08-24T23:10:31.616Z,23.06
2022-08-24T23:13:00.206Z,23.05
2022-08-24T23:15:28.550Z,23.07
2022-08-24T23:17:58.064Z,23.06
2022-08-24T23:20:25.251Z,23.04
2022-08-24T23:22:53.322Z,23.05
2022-08-24T23:25:21.440Z,23.06
2022-08-24T23:27:50.207Z,23.01
2022-08-24T23:30:18.341Z,22.94
2022-08-24T23:32:47.694Z,22.88
2022-08-24T23:35:17.149Z,22.88
2022-08-24T23:37:45.152Z,22.87
2022-08-24T23:42:41.517Z,22.84
2022-08-24T23:45:12.297Z,22.81
2022-08-24T23:47:40.934Z,22.77
2022-08-24T23:50:11.012Z,22.72
2022-08-24T23:52:41.303Z,22.74
2022-08-24T23:55:20.215Z,22.77
2022-08-24T23:57:49.876Z,22.75
